sensor_id;sensor_type;location;lat;lon;timestamp;P1;durP1;ratioP1;P2;durP2;ratioP2
53959;SDS011;39866;48.638;-2.020;2024-03-08T00:02:20;16.23;;;14.52;;
53959;SDS011;39866;48.638;-2.020;2024-03-08T00:04:45;17.55;;;15.70;;
53959;SDS011;39866;48.638;-2.020;2024-03-08T00:07:11;16.08;;;14.38;;
53959;SDS011;39866;48.638;-2.020;2024-03-08T00:09:36;17.48;;;15.57;;
53959;SDS011;39866;48.638;-2.020;2024-03-08T00:12:01;16.45;;;14.77;;
53959;SDS011;39866;48.638;-2.020;2024-03-08T00:14:26;16.08;;;14.38;;
53959;SDS011;39866;48.638;-2.020;2024-03-08T00:16:52;17.13;;;15.32;;
53959;SDS011;39866;48.638;-2.020;2024-03-08T00:19:19;18.95;;;16.48;;
53959;SDS011;39866;48.638;-2.020;2024-03-08T00:21:44;17.35;;;15.55;;
53959;SDS011;39866;48.638;-2.020;2024-03-08T00:24:10;17.95;;;16.05;;
53959;SDS011;39866;48.638;-2.020;2024-03-08T00:26:35;17.70;;;15.80;;
53959;SDS011;39866;48.638;-2.020;2024-03-08T00:29:01;19.08;;;16.42;;
53959;SDS011;39866;48.638;-2.020;2024-03-08T00:31:26;19.23;;;16.55;;
53959;SDS011;39866;48.638;-2.020;2024-03-08T00:33:51;19.30;;;16.35;;
53959;SDS011;39866;48.638;-2.020;2024-03-08T00:36:17;17.77;;;15.93;;
53959;SDS011;39866;48.638;-2.020;2024-03-08T00:38:43;17.85;;;15.98;;
53959;SDS011;39866;48.638;-2.020;2024-03-08T00:41:08;17.20;;;15.40;;
53959;SDS011;39866;48.638;-2.020;2024-03-08T00:43:33;17.05;;;15.25;;
53959;SDS011;39866;48.638;-2.020;2024-03-08T00:45:59;17.75;;;15.85;;
53959;SDS011;39866;48.638;-2.020;2024-03-08T00:48:26;18.77;;;16.60;;
53959;SDS011;39866;48.638;-2.020;2024-03-08T00:50:51;19.25;;;16.10;;
53959;SDS011;39866;48.638;-2.020;2024-03-08T00:53:17;18.50;;;16.15;;
53959;SDS011;39866;48.638;-2.020;2024-03-08T00:55:43;20.05;;;17.52;;
53959;SDS011;39866;48.638;-2.020;2024-03-08T00:58:11;18.77;;;16.70;;
53959;SDS011;39866;48.638;-2.020;2024-03-08T01:00:36;18.33;;;16.42;;
53959;SDS011;39866;48.638;-2.020;2024-03-08T01:03:04;18.00;;;16.17;;
53959;SDS011;39866;48.638;-2.020;2024-03-08T01:05:29;19.90;;;17.08;;
53959;SDS011;39866;48.638;-2.020;2024-03-08T01:07:55;19.38;;;17.27;;
53959;SDS011;39866;48.638;-2.020;2024-03-08T01:10:20;18.48;;;16.45;;
53959;SDS011;39866;48.638;-2.020;2024-03-08T01:12:46;19.45;;;15.75;;
53959;SDS011;39866;48.638;-2.020;2024-03-08T01:15:11;18.48;;;16.33;;
53959;SDS011;39866;48.638;-2.020;2024-03-08T01:17:37;18.50;;;16.42;;
53959;SDS011;39866;48.638;-2.020;2024-03-08T01:20:03;18.60;;;16.33;;
53959;SDS011;39866;48.638;-2.020;2024-03-08T01:22:29;19.50;;;17.50;;
53959;SDS011;39866;48.638;-2.020;2024-03-08T01:24:55;19.80;;;17.13;;
53959;SDS011;39866;48.638;-2.020;2024-03-08T01:27:20;18.90;;;16.90;;
53959;SDS011;39866;48.638;-2.020;2024-03-08T01:29:46;18.00;;;15.98;;
53959;SDS011;39866;48.638;-2.020;2024-03-08T01:32:11;19.08;;;17.08;;
53959;SDS011;39866;48.638;-2.020;2024-03-08T01:34:37;20.77;;;17.50;;
53959;SDS011;39866;48.638;-2.020;2024-03-08T01:37:02;18.30;;;16.42;;
53959;SDS011;39866;48.638;-2.020;2024-03-08T01:39:27;19.83;;;17.73;;
53959;SDS011;39866;48.638;-2.020;2024-03-08T01:41:53;19.17;;;17.17;;
53959;SDS011;39866;48.638;-2.020;2024-03-08T01:44:19;21.92;;;18.73;;
53959;SDS011;39866;48.638;-2.020;2024-03-08T01:46:45;19.40;;;17.40;;
53959;SDS011;39866;48.638;-2.020;2024-03-08T01:49:11;20.90;;;17.55;;
53959;SDS011;39866;48.638;-2.020;2024-03-08T01:51:38;19.77;;;17.08;;
53959;SDS011;39866;48.638;-2.020;2024-03-08T01:54:05;19.70;;;17.67;;
53959;SDS011;39866;48.638;-2.020;2024-03-08T01:56:31;20.45;;;17.75;;
53959;SDS011;39866;48.638;-2.020;2024-03-08T01:58:57;19.83;;;17.73;;
53959;SDS011;39866;48.638;-2.020;2024-03-08T02:01:24;19.10;;;16.95;;
53959;SDS011;39866;48.638;-2.020;2024-03-08T02:03:50;19.75;;;17.13;;
53959;SDS011;39866;48.638;-2.020;2024-03-08T02:06:15;19.77;;;17.45;;
53959;SDS011;39866;48.638;-2.020;2024-03-08T02:08:42;19.67;;;17.42;;
53959;SDS011;39866;48.638;-2.020;2024-03-08T02:11:11;19.83;;;17.70;;
53959;SDS011;39866;48.638;-2.020;2024-03-08T02:13:37;21.38;;;18.10;;
53959;SDS011;39866;48.638;-2.020;2024-03-08T02:16:02;18.83;;;16.83;;
53959;SDS011;39866;48.638;-2.020;2024-03-08T02:18:29;21.70;;;18.13;;
53959;SDS011;39866;48.638;-2.020;2024-03-08T02:20:55;19.13;;;16.83;;
53959;SDS011;39866;48.638;-2.020;2024-03-08T02:23:22;19.88;;;17.77;;
53959;SDS011;39866;48.638;-2.020;2024-03-08T02:25:48;22.38;;;18.35;;
53959;SDS011;39866;48.638;-2.020;2024-03-08T02:28:14;20.77;;;17.88;;
53959;SDS011;39866;48.638;-2.020;2024-03-08T02:30:40;21.98;;;18.25;;
53959;SDS011;39866;48.638;-2.020;2024-03-08T02:33:06;21.33;;;18.15;;
53959;SDS011;39866;48.638;-2.020;2024-03-08T02:35:34;21.88;;;18.35;;
53959;SDS011;39866;48.638;-2.020;2024-03-08T02:38:00;22.30;;;18.33;;
53959;SDS011;39866;48.638;-2.020;2024-03-08T02:40:25;22.23;;;18.85;;
53959;SDS011;39866;48.638;-2.020;2024-03-08T02:42:51;21.40;;;18.55;;
53959;SDS011;39866;48.638;-2.020;2024-03-08T02:45:16;21.15;;;18.40;;
53959;SDS011;39866;48.638;-2.020;2024-03-08T02:47:42;21.42;;;18.20;;
53959;SDS011;39866;48.638;-2.020;2024-03-08T02:50:07;21.20;;;18.25;;
53959;SDS011;39866;48.638;-2.020;2024-03-08T02:52:33;21.00;;;18.02;;
53959;SDS011;39866;48.638;-2.020;2024-03-08T02:55:00;20.60;;;18.33;;
53959;SDS011;39866;48.638;-2.020;2024-03-08T02:57:26;20.58;;;18.15;;
53959;SDS011;39866;48.638;-2.020;2024-03-08T02:59:53;20.60;;;18.40;;
53959;SDS011;39866;48.638;-2.020;2024-03-08T03:02:18;21.85;;;19.55;;
53959;SDS011;39866;48.638;-2.020;2024-03-08T03:04:44;21.67;;;18.92;;
53959;SDS011;39866;48.638;-2.020;2024-03-08T03:07:09;20.08;;;17.95;;
53959;SDS011;39866;48.638;-2.020;2024-03-08T03:09:34;21.05;;;18.85;;
53959;SDS011;39866;48.638;-2.020;2024-03-08T03:12:00;21.70;;;19.10;;
53959;SDS011;39866;48.638;-2.020;2024-03-08T03:14:25;24.48;;;21.08;;
53959;SDS011;39866;48.638;-2.020;2024-03-08T03:16:53;20.60;;;18.42;;
53959;SDS011;39866;48.638;-2.020;2024-03-08T03:19:19;27.15;;;19.25;;
53959;SDS011;39866;48.638;-2.020;2024-03-08T03:21:45;21.48;;;18.77;;
53959;SDS011;39866;48.638;-2.020;2024-03-08T03:24:10;22.38;;;19.77;;
53959;SDS011;39866;48.638;-2.020;2024-03-08T03:26:37;21.90;;;19.20;;
53959;SDS011;39866;48.638;-2.020;2024-03-08T03:29:04;23.10;;;20.02;;
53959;SDS011;39866;48.638;-2.020;2024-03-08T03:31:31;21.90;;;19.38;;
53959;SDS011;39866;48.638;-2.020;2024-03-08T03:33:57;22.13;;;19.83;;
53959;SDS011;39866;48.638;-2.020;2024-03-08T03:36:26;23.17;;;19.85;;
53959;SDS011;39866;48.638;-2.020;2024-03-08T03:38:53;24.02;;;19.60;;
53959;SDS011;39866;48.638;-2.020;2024-03-08T03:41:29;25.42;;;20.38;;
53959;SDS011;39866;48.638;-2.020;2024-03-08T03:43:55;23.48;;;20.02;;
53959;SDS011;39866;48.638;-2.020;2024-03-08T03:46:20;25.90;;;20.42;;
53959;SDS011;39866;48.638;-2.020;2024-03-08T03:48:45;23.48;;;19.83;;
53959;SDS011;39866;48.638;-2.020;2024-03-08T03:51:11;26.95;;;20.20;;
53959;SDS011;39866;48.638;-2.020;2024-03-08T03:53:37;24.27;;;20.40;;
53959;SDS011;39866;48.638;-2.020;2024-03-08T03:56:02;22.83;;;20.27;;
53959;SDS011;39866;48.638;-2.020;2024-03-08T03:58:31;22.65;;;19.45;;
53959;SDS011;39866;48.638;-2.020;2024-03-08T04:00:57;21.70;;;18.58;;
53959;SDS011;39866;48.638;-2.020;2024-03-08T04:03:22;23.27;;;19.50;;
53959;SDS011;39866;48.638;-2.020;2024-03-08T04:05:48;23.42;;;19.38;;
53959;SDS011;39866;48.638;-2.020;2024-03-08T04:08:13;22.90;;;19.40;;
53959;SDS011;39866;48.638;-2.020;2024-03-08T04:10:39;23.88;;;20.42;;
53959;SDS011;39866;48.638;-2.020;2024-03-08T04:13:08;22.23;;;19.45;;
53959;SDS011;39866;48.638;-2.020;2024-03-08T04:15:34;24.90;;;19.40;;
53959;SDS011;39866;48.638;-2.020;2024-03-08T04:18:00;23.02;;;20.38;;
53959;SDS011;39866;48.638;-2.020;2024-03-08T04:20:25;24.15;;;20.45;;
53959;SDS011;39866;48.638;-2.020;2024-03-08T04:22:51;23.52;;;20.50;;
53959;SDS011;39866;48.638;-2.020;2024-03-08T04:25:16;24.27;;;20.10;;
53959;SDS011;39866;48.638;-2.020;2024-03-08T04:27:42;24.40;;;20.23;;
53959;SDS011;39866;48.638;-2.020;2024-03-08T04:30:07;24.90;;;20.52;;
53959;SDS011;39866;48.638;-2.020;2024-03-08T04:32:33;23.67;;;19.83;;
53959;SDS011;39866;48.638;-2.020;2024-03-08T04:34:59;23.40;;;19.50;;
53959;SDS011;39866;48.638;-2.020;2024-03-08T04:37:26;23.98;;;20.55;;
53959;SDS011;39866;48.638;-2.020;2024-03-08T04:39:54;24.10;;;20.45;;
53959;SDS011;39866;48.638;-2.020;2024-03-08T04:42:20;23.15;;;20.65;;
53959;SDS011;39866;48.638;-2.020;2024-03-08T04:44:45;25.33;;;22.38;;
53959;SDS011;39866;48.638;-2.020;2024-03-08T04:47:11;24.42;;;20.65;;
53959;SDS011;39866;48.638;-2.020;2024-03-08T04:49:36;25.80;;;21.20;;
53959;SDS011;39866;48.638;-2.020;2024-03-08T04:52:05;24.90;;;20.42;;
53959;SDS011;39866;48.638;-2.020;2024-03-08T04:54:31;22.95;;;20.55;;
53959;SDS011;39866;48.638;-2.020;2024-03-08T04:56:57;23.73;;;21.08;;
53959;SDS011;39866;48.638;-2.020;2024-03-08T04:59:22;25.60;;;21.48;;
53959;SDS011;39866;48.638;-2.020;2024-03-08T05:01:49;23.98;;;21.52;;
53959;SDS011;39866;48.638;-2.020;2024-03-08T05:04:14;26.67;;;22.73;;
53959;SDS011;39866;48.638;-2.020;2024-03-08T05:06:40;24.98;;;22.27;;
53959;SDS011;39866;48.638;-2.020;2024-03-08T05:09:05;24.35;;;21.73;;
53959;SDS011;39866;48.638;-2.020;2024-03-08T05:11:43;24.98;;;21.73;;
53959;SDS011;39866;48.638;-2.020;2024-03-08T05:14:09;24.25;;;21.73;;
53959;SDS011;39866;48.638;-2.020;2024-03-08T05:16:35;24.10;;;21.15;;
53959;SDS011;39866;48.638;-2.020;2024-03-08T05:19:01;23.92;;;21.17;;
53959;SDS011;39866;48.638;-2.020;2024-03-08T05:21:27;25.10;;;22.08;;
53959;SDS011;39866;48.638;-2.020;2024-03-08T05:23:53;24.20;;;21.70;;
53959;SDS011;39866;48.638;-2.020;2024-03-08T05:26:19;23.98;;;20.98;;
53959;SDS011;39866;48.638;-2.020;2024-03-08T05:28:44;25.75;;;22.70;;
53959;SDS011;39866;48.638;-2.020;2024-03-08T05:31:10;24.30;;;21.70;;
53959;SDS011;39866;48.638;-2.020;2024-03-08T05:33:35;25.38;;;22.75;;
53959;SDS011;39866;48.638;-2.020;2024-03-08T05:36:00;25.77;;;22.48;;
53959;SDS011;39866;48.638;-2.020;2024-03-08T05:38:27;25.10;;;22.33;;
53959;SDS011;39866;48.638;-2.020;2024-03-08T05:40:53;23.40;;;20.80;;
53959;SDS011;39866;48.638;-2.020;2024-03-08T05:43:19;26.48;;;21.95;;
53959;SDS011;39866;48.638;-2.020;2024-03-08T05:45:44;25.58;;;21.85;;
53959;SDS011;39866;48.638;-2.020;2024-03-08T05:48:13;26.15;;;23.05;;
53959;SDS011;39866;48.638;-2.020;2024-03-08T05:50:38;26.17;;;23.15;;
53959;SDS011;39866;48.638;-2.020;2024-03-08T05:53:04;26.02;;;22.83;;
53959;SDS011;39866;48.638;-2.020;2024-03-08T05:55:32;24.77;;;22.08;;
53959;SDS011;39866;48.638;-2.020;2024-03-08T05:58:01;25.20;;;22.40;;
53959;SDS011;39866;48.638;-2.020;2024-03-08T06:00:27;25.23;;;22.52;;
53959;SDS011;39866;48.638;-2.020;2024-03-08T06:02:52;24.73;;;22.10;;
53959;SDS011;39866;48.638;-2.020;2024-03-08T06:05:18;25.88;;;21.95;;
53959;SDS011;39866;48.638;-2.020;2024-03-08T06:07:43;25.98;;;22.40;;
53959;SDS011;39866;48.638;-2.020;2024-03-08T06:10:09;24.92;;;21.52;;
53959;SDS011;39866;48.638;-2.020;2024-03-08T06:12:36;26.45;;;22.92;;
53959;SDS011;39866;48.638;-2.020;2024-03-08T06:15:09;26.33;;;21.42;;
53959;SDS011;39866;48.638;-2.020;2024-03-08T06:17:35;23.77;;;21.17;;
53959;SDS011;39866;48.638;-2.020;2024-03-08T06:20:01;24.35;;;21.70;;
53959;SDS011;39866;48.638;-2.020;2024-03-08T06:22:28;25.98;;;22.00;;
53959;SDS011;39866;48.638;-2.020;2024-03-08T06:24:55;25.35;;;21.20;;
53959;SDS011;39866;48.638;-2.020;2024-03-08T06:27:21;24.02;;;21.35;;
53959;SDS011;39866;48.638;-2.020;2024-03-08T06:29:46;24.40;;;21.80;;
53959;SDS011;39866;48.638;-2.020;2024-03-08T06:32:14;25.50;;;21.40;;
53959;SDS011;39866;48.638;-2.020;2024-03-08T06:34:40;23.95;;;21.45;;
53959;SDS011;39866;48.638;-2.020;2024-03-08T06:37:06;24.80;;;22.17;;
53959;SDS011;39866;48.638;-2.020;2024-03-08T06:39:31;24.52;;;21.77;;
53959;SDS011;39866;48.638;-2.020;2024-03-08T06:41:57;25.67;;;22.10;;
53959;SDS011;39866;48.638;-2.020;2024-03-08T06:44:23;25.95;;;23.00;;
53959;SDS011;39866;48.638;-2.020;2024-03-08T06:46:48;25.52;;;22.17;;
53959;SDS011;39866;48.638;-2.020;2024-03-08T06:49:15;24.23;;;21.63;;
53959;SDS011;39866;48.638;-2.020;2024-03-08T06:51:41;23.80;;;21.23;;
53959;SDS011;39866;48.638;-2.020;2024-03-08T06:54:06;27.45;;;22.70;;
53959;SDS011;39866;48.638;-2.020;2024-03-08T06:56:33;24.60;;;21.88;;
53959;SDS011;39866;48.638;-2.020;2024-03-08T06:59:02;25.15;;;22.48;;
53959;SDS011;39866;48.638;-2.020;2024-03-08T07:01:28;26.63;;;22.35;;
53959;SDS011;39866;48.638;-2.020;2024-03-08T07:03:56;23.73;;;20.98;;
53959;SDS011;39866;48.638;-2.020;2024-03-08T07:06:22;23.17;;;20.67;;
53959;SDS011;39866;48.638;-2.020;2024-03-08T07:08:47;24.15;;;21.63;;
53959;SDS011;39866;48.638;-2.020;2024-03-08T07:11:13;23.65;;;21.15;;
53959;SDS011;39866;48.638;-2.020;2024-03-08T07:13:43;23.90;;;21.30;;
53959;SDS011;39866;48.638;-2.020;2024-03-08T07:16:09;25.35;;;21.00;;
53959;SDS011;39866;48.638;-2.020;2024-03-08T07:18:36;24.08;;;21.58;;
53959;SDS011;39866;48.638;-2.020;2024-03-08T07:21:04;25.00;;;22.30;;
53959;SDS011;39866;48.638;-2.020;2024-03-08T07:23:30;25.58;;;21.50;;
53959;SDS011;39866;48.638;-2.020;2024-03-08T07:26:17;23.85;;;20.95;;
53959;SDS011;39866;48.638;-2.020;2024-03-08T07:28:44;23.38;;;20.83;;
53959;SDS011;39866;48.638;-2.020;2024-03-08T07:31:09;23.60;;;21.10;;
53959;SDS011;39866;48.638;-2.020;2024-03-08T07:33:43;24.95;;;21.23;;
53959;SDS011;39866;48.638;-2.020;2024-03-08T07:36:09;22.70;;;20.27;;
53959;SDS011;39866;48.638;-2.020;2024-03-08T07:38:34;23.55;;;20.52;;
53959;SDS011;39866;48.638;-2.020;2024-03-08T07:40:59;25.00;;;21.23;;
53959;SDS011;39866;48.638;-2.020;2024-03-08T07:43:25;25.15;;;21.42;;
53959;SDS011;39866;48.638;-2.020;2024-03-08T07:45:51;22.85;;;20.45;;
53959;SDS011;39866;48.638;-2.020;2024-03-08T07:48:18;24.10;;;21.40;;
53959;SDS011;39866;48.638;-2.020;2024-03-08T07:50:43;23.75;;;21.25;;
53959;SDS011;39866;48.638;-2.020;2024-03-08T07:53:09;22.75;;;19.90;;
53959;SDS011;39866;48.638;-2.020;2024-03-08T07:55:35;22.92;;;20.48;;
53959;SDS011;39866;48.638;-2.020;2024-03-08T07:58:01;24.15;;;21.55;;
53959;SDS011;39866;48.638;-2.020;2024-03-08T08:00:29;23.73;;;21.25;;
53959;SDS011;39866;48.638;-2.020;2024-03-08T08:02:56;24.33;;;20.70;;
53959;SDS011;39866;48.638;-2.020;2024-03-08T08:05:22;24.30;;;20.95;;
53959;SDS011;39866;48.638;-2.020;2024-03-08T08:07:47;25.92;;;22.08;;
53959;SDS011;39866;48.638;-2.020;2024-03-08T08:10:13;25.10;;;20.92;;
53959;SDS011;39866;48.638;-2.020;2024-03-08T08:12:50;23.90;;;21.20;;
53959;SDS011;39866;48.638;-2.020;2024-03-08T08:15:19;35.03;;;22.25;;
53959;SDS011;39866;48.638;-2.020;2024-03-08T08:17:45;23.58;;;20.08;;
53959;SDS011;39866;48.638;-2.020;2024-03-08T08:20:11;22.50;;;20.10;;
53959;SDS011;39866;48.638;-2.020;2024-03-08T08:22:40;22.88;;;20.05;;
53959;SDS011;39866;48.638;-2.020;2024-03-08T08:25:10;24.33;;;20.27;;
53959;SDS011;39866;48.638;-2.020;2024-03-08T08:27:40;23.23;;;20.27;;
53959;SDS011;39866;48.638;-2.020;2024-03-08T08:30:07;23.30;;;20.45;;
53959;SDS011;39866;48.638;-2.020;2024-03-08T08:32:34;23.42;;;19.67;;
53959;SDS011;39866;48.638;-2.020;2024-03-08T08:35:01;23.50;;;20.90;;
53959;SDS011;39866;48.638;-2.020;2024-03-08T08:37:27;22.00;;;19.70;;
53959;SDS011;39866;48.638;-2.020;2024-03-08T08:39:53;23.10;;;19.77;;
53959;SDS011;39866;48.638;-2.020;2024-03-08T08:42:19;22.00;;;19.13;;
53959;SDS011;39866;48.638;-2.020;2024-03-08T08:44:44;24.55;;;20.35;;
53959;SDS011;39866;48.638;-2.020;2024-03-08T08:47:09;22.30;;;19.92;;
53959;SDS011;39866;48.638;-2.020;2024-03-08T08:49:35;22.67;;;19.55;;
53959;SDS011;39866;48.638;-2.020;2024-03-08T08:52:01;23.23;;;19.58;;
53959;SDS011;39866;48.638;-2.020;2024-03-08T08:54:26;20.77;;;18.60;;
53959;SDS011;39866;48.638;-2.020;2024-03-08T08:56:52;22.90;;;19.58;;
53959;SDS011;39866;48.638;-2.020;2024-03-08T08:59:18;22.42;;;20.13;;
53959;SDS011;39866;48.638;-2.020;2024-03-08T09:01:48;23.48;;;19.15;;
53959;SDS011;39866;48.638;-2.020;2024-03-08T09:04:13;21.42;;;19.13;;
53959;SDS011;39866;48.638;-2.020;2024-03-08T09:06:38;21.13;;;18.48;;
53959;SDS011;39866;48.638;-2.020;2024-03-08T09:09:06;21.17;;;18.88;;
53959;SDS011;39866;48.638;-2.020;2024-03-08T09:11:34;20.92;;;18.73;;
53959;SDS011;39866;48.638;-2.020;2024-03-08T09:13:59;23.38;;;20.13;;
53959;SDS011;39866;48.638;-2.020;2024-03-08T09:16:25;21.15;;;18.88;;
53959;SDS011;39866;48.638;-2.020;2024-03-08T09:18:51;20.50;;;18.40;;
53959;SDS011;39866;48.638;-2.020;2024-03-08T09:21:16;22.33;;;19.63;;
53959;SDS011;39866;48.638;-2.020;2024-03-08T09:23:42;23.38;;;19.80;;
53959;SDS011;39866;48.638;-2.020;2024-03-08T09:26:09;22.27;;;19.92;;
53959;SDS011;39866;48.638;-2.020;2024-03-08T09:28:37;21.70;;;19.40;;
53959;SDS011;39866;48.638;-2.020;2024-03-08T09:31:03;21.02;;;18.52;;
53959;SDS011;39866;48.638;-2.020;2024-03-08T09:33:30;22.30;;;19.10;;
53959;SDS011;39866;48.638;-2.020;2024-03-08T09:35:56;20.08;;;18.02;;
53959;SDS011;39866;48.638;-2.020;2024-03-08T09:38:22;20.65;;;18.45;;
53959;SDS011;39866;48.638;-2.020;2024-03-08T09:40:49;20.67;;;18.33;;
53959;SDS011;39866;48.638;-2.020;2024-03-08T09:43:15;19.40;;;17.30;;
53959;SDS011;39866;48.638;-2.020;2024-03-08T09:45:41;22.70;;;19.92;;
53959;SDS011;39866;48.638;-2.020;2024-03-08T09:48:10;21.92;;;18.05;;
53959;SDS011;39866;48.638;-2.020;2024-03-08T09:50:41;22.15;;;17.88;;
53959;SDS011;39866;48.638;-2.020;2024-03-08T09:53:06;19.85;;;17.58;;
53959;SDS011;39866;48.638;-2.020;2024-03-08T09:55:34;21.23;;;16.90;;
53959;SDS011;39866;48.638;-2.020;2024-03-08T09:58:02;21.38;;;17.15;;
53959;SDS011;39866;48.638;-2.020;2024-03-08T10:00:50;17.63;;;15.93;;
53959;SDS011;39866;48.638;-2.020;2024-03-08T10:03:15;18.17;;;15.25;;
53959;SDS011;39866;48.638;-2.020;2024-03-08T10:05:41;17.73;;;15.75;;
53959;SDS011;39866;48.638;-2.020;2024-03-08T10:08:07;18.00;;;15.95;;
53959;SDS011;39866;48.638;-2.020;2024-03-08T10:10:39;18.63;;;15.93;;
53959;SDS011;39866;48.638;-2.020;2024-03-08T10:13:08;17.83;;;15.68;;
53959;SDS011;39866;48.638;-2.020;2024-03-08T10:15:34;18.10;;;16.27;;
53959;SDS011;39866;48.638;-2.020;2024-03-08T10:18:00;17.15;;;15.35;;
53959;SDS011;39866;48.638;-2.020;2024-03-08T10:20:30;17.05;;;15.10;;
53959;SDS011;39866;48.638;-2.020;2024-03-08T10:22:59;19.38;;;16.35;;
53959;SDS011;39866;48.638;-2.020;2024-03-08T10:25:25;20.08;;;16.90;;
53959;SDS011;39866;48.638;-2.020;2024-03-08T10:27:51;18.00;;;15.48;;
53959;SDS011;39866;48.638;-2.020;2024-03-08T10:30:16;19.35;;;15.48;;
53959;SDS011;39866;48.638;-2.020;2024-03-08T10:32:46;18.25;;;15.68;;
53959;SDS011;39866;48.638;-2.020;2024-03-08T10:35:13;21.65;;;15.02;;
53959;SDS011;39866;48.638;-2.020;2024-03-08T10:37:45;17.05;;;15.25;;
53959;SDS011;39866;48.638;-2.020;2024-03-08T10:40:18;17.25;;;14.70;;
53959;SDS011;39866;48.638;-2.020;2024-03-08T10:42:58;18.63;;;14.80;;
53959;SDS011;39866;48.638;-2.020;2024-03-08T10:45:31;18.13;;;14.98;;
53959;SDS011;39866;48.638;-2.020;2024-03-08T10:48:44;17.58;;;14.88;;
53959;SDS011;39866;48.638;-2.020;2024-03-08T10:50:57;20.55;;;15.45;;
53959;SDS011;39866;48.638;-2.020;2024-03-08T10:53:27;16.52;;;14.68;;
53959;SDS011;39866;48.638;-2.020;2024-03-08T10:55:54;17.85;;;15.48;;
53959;SDS011;39866;48.638;-2.020;2024-03-08T10:58:22;16.60;;;14.85;;
53959;SDS011;39866;48.638;-2.020;2024-03-08T11:00:52;15.65;;;14.05;;
53959;SDS011;39866;48.638;-2.020;2024-03-08T11:06:07;15.93;;;14.23;;
53959;SDS011;39866;48.638;-2.020;2024-03-08T11:08:35;16.58;;;13.48;;
53959;SDS011;39866;48.638;-2.020;2024-03-08T11:11:01;15.73;;;12.48;;
53959;SDS011;39866;48.638;-2.020;2024-03-08T11:16:07;15.20;;;12.25;;
53959;SDS011;39866;48.638;-2.020;2024-03-08T11:18:34;34.40;;;19.90;;
53959;SDS011;39866;48.638;-2.020;2024-03-08T11:21:04;16.77;;;12.32;;
53959;SDS011;39866;48.638;-2.020;2024-03-08T11:23:37;13.15;;;11.20;;
53959;SDS011;39866;48.638;-2.020;2024-03-08T11:26:03;15.57;;;12.75;;
53959;SDS011;39866;48.638;-2.020;2024-03-08T11:28:32;13.85;;;11.27;;
53959;SDS011;39866;48.638;-2.020;2024-03-08T11:33:27;12.13;;;10.65;;
53959;SDS011;39866;48.638;-2.020;2024-03-08T11:38:45;14.25;;;12.00;;
53959;SDS011;39866;48.638;-2.020;2024-03-08T11:41:13;16.90;;;12.68;;
53959;SDS011;39866;48.638;-2.020;2024-03-08T11:43:46;14.07;;;10.60;;
53959;SDS011;39866;48.638;-2.020;2024-03-08T11:46:12;14.50;;;11.45;;
53959;SDS011;39866;48.638;-2.020;2024-03-08T11:48:39;16.95;;;12.30;;
53959;SDS011;39866;48.638;-2.020;2024-03-08T11:51:07;16.75;;;13.15;;
53959;SDS011;39866;48.638;-2.020;2024-03-08T11:53:33;15.02;;;12.32;;
53959;SDS011;39866;48.638;-2.020;2024-03-08T11:56:11;13.93;;;11.60;;
53959;SDS011;39866;48.638;-2.020;2024-03-08T11:58:38;14.23;;;11.50;;
53959;SDS011;39866;48.638;-2.020;2024-03-08T12:01:08;19.05;;;15.68;;
53959;SDS011;39866;48.638;-2.020;2024-03-08T12:03:39;13.75;;;12.35;;
53959;SDS011;39866;48.638;-2.020;2024-03-08T12:06:07;12.85;;;10.70;;
53959;SDS011;39866;48.638;-2.020;2024-03-08T12:08:35;13.38;;;11.45;;
53959;SDS011;39866;48.638;-2.020;2024-03-08T12:11:00;12.68;;;10.38;;
53959;SDS011;39866;48.638;-2.020;2024-03-08T12:13:30;13.35;;;10.52;;
53959;SDS011;39866;48.638;-2.020;2024-03-08T12:15:57;14.18;;;11.43;;
53959;SDS011;39866;48.638;-2.020;2024-03-08T12:18:24;14.93;;;11.23;;
53959;SDS011;39866;48.638;-2.020;2024-03-08T12:20:51;13.95;;;10.68;;
53959;SDS011;39866;48.638;-2.020;2024-03-08T12:23:16;12.30;;;10.85;;
53959;SDS011;39866;48.638;-2.020;2024-03-08T12:25:42;14.23;;;11.10;;
53959;SDS011;39866;48.638;-2.020;2024-03-08T12:28:11;13.30;;;10.68;;
53959;SDS011;39866;48.638;-2.020;2024-03-08T12:30:48;11.95;;;10.68;;
53959;SDS011;39866;48.638;-2.020;2024-03-08T12:33:21;11.93;;;10.40;;
53959;SDS011;39866;48.638;-2.020;2024-03-08T12:35:53;14.55;;;11.25;;
53959;SDS011;39866;48.638;-2.020;2024-03-08T12:38:20;13.50;;;10.45;;
53959;SDS011;39866;48.638;-2.020;2024-03-08T12:40:56;12.10;;;10.05;;
53959;SDS011;39866;48.638;-2.020;2024-03-08T12:43:23;12.32;;;10.10;;
53959;SDS011;39866;48.638;-2.020;2024-03-08T12:45:49;13.18;;;11.20;;
53959;SDS011;39866;48.638;-2.020;2024-03-08T12:48:14;13.27;;;10.30;;
53959;SDS011;39866;48.638;-2.020;2024-03-08T12:50:40;13.93;;;9.98;;
53959;SDS011;39866;48.638;-2.020;2024-03-08T12:53:08;12.15;;;10.75;;
53959;SDS011;39866;48.638;-2.020;2024-03-08T12:55:34;12.50;;;10.50;;
53959;SDS011;39866;48.638;-2.020;2024-03-08T12:57:59;11.43;;;10.23;;
53959;SDS011;39866;48.638;-2.020;2024-03-08T13:00:25;14.45;;;9.93;;
53959;SDS011;39866;48.638;-2.020;2024-03-08T13:02:53;14.38;;;10.13;;
53959;SDS011;39866;48.638;-2.020;2024-03-08T13:05:18;13.75;;;10.65;;
53959;SDS011;39866;48.638;-2.020;2024-03-08T13:07:45;14.07;;;10.80;;
53959;SDS011;39866;48.638;-2.020;2024-03-08T13:10:14;15.32;;;11.23;;
53959;SDS011;39866;48.638;-2.020;2024-03-08T13:12:44;10.77;;;9.30;;
53959;SDS011;39866;48.638;-2.020;2024-03-08T13:15:09;14.15;;;10.48;;
53959;SDS011;39866;48.638;-2.020;2024-03-08T13:17:45;16.25;;;10.80;;
53959;SDS011;39866;48.638;-2.020;2024-03-08T13:20:13;12.82;;;10.00;;
53959;SDS011;39866;48.638;-2.020;2024-03-08T13:22:42;12.43;;;9.38;;
53959;SDS011;39866;48.638;-2.020;2024-03-08T13:25:08;16.25;;;10.90;;
53959;SDS011;39866;48.638;-2.020;2024-03-08T13:27:38;14.52;;;9.88;;
53959;SDS011;39866;48.638;-2.020;2024-03-08T13:30:10;14.60;;;9.95;;
53959;SDS011;39866;48.638;-2.020;2024-03-08T13:32:40;11.75;;;9.90;;
53959;SDS011;39866;48.638;-2.020;2024-03-08T13:35:08;12.65;;;9.35;;
53959;SDS011;39866;48.638;-2.020;2024-03-08T13:37:38;11.52;;;9.57;;
53959;SDS011;39866;48.638;-2.020;2024-03-08T13:40:05;11.70;;;10.35;;
53959;SDS011;39866;48.638;-2.020;2024-03-08T13:42:31;11.38;;;9.60;;
53959;SDS011;39866;48.638;-2.020;2024-03-08T13:44:56;10.98;;;9.48;;
53959;SDS011;39866;48.638;-2.020;2024-03-08T13:47:21;11.65;;;10.35;;
53959;SDS011;39866;48.638;-2.020;2024-03-08T13:49:47;11.70;;;9.40;;
53959;SDS011;39866;48.638;-2.020;2024-03-08T13:52:15;12.77;;;9.80;;
53959;SDS011;39866;48.638;-2.020;2024-03-08T13:54:41;11.20;;;8.75;;
53959;SDS011;39866;48.638;-2.020;2024-03-08T13:57:06;12.02;;;9.00;;
53959;SDS011;39866;48.638;-2.020;2024-03-08T13:59:32;11.05;;;9.55;;
53959;SDS011;39866;48.638;-2.020;2024-03-08T14:02:00;11.32;;;9.32;;
53959;SDS011;39866;48.638;-2.020;2024-03-08T14:04:27;10.95;;;8.88;;
53959;SDS011;39866;48.638;-2.020;2024-03-08T14:06:55;11.60;;;9.23;;
53959;SDS011;39866;48.638;-2.020;2024-03-08T14:09:28;14.95;;;10.38;;
53959;SDS011;39866;48.638;-2.020;2024-03-08T14:11:57;12.90;;;8.77;;
53959;SDS011;39866;48.638;-2.020;2024-03-08T14:14:23;11.77;;;9.50;;
53959;SDS011;39866;48.638;-2.020;2024-03-08T14:16:49;9.98;;;8.93;;
53959;SDS011;39866;48.638;-2.020;2024-03-08T14:19:19;11.38;;;8.48;;